sensor_id;sensor_type;location;lat;lon;timestamp;temperature;humidity
3846;DHT22;1938;50.812;7.738;2023-12-20T00:02:20;5.00;99.90
3846;DHT22;1938;50.812;7.738;2023-12-20T00:04:45;5.10;99.90
3846;DHT22;1938;50.812;7.738;2023-12-20T00:07:11;5.10;99.90
3846;DHT22;1938;50.812;7.738;2023-12-20T00:09:36;5.10;99.90
3846;DHT22;1938;50.812;7.738;2023-12-20T00:12:02;5.10;99.90
3846;DHT22;1938;50.812;7.738;2023-12-20T00:14:29;5.10;99.90
3846;DHT22;1938;50.812;7.738;2023-12-20T00:16:54;5.10;99.90
3846;DHT22;1938;50.812;7.738;2023-12-20T00:19:20;5.20;99.90
3846;DHT22;1938;50.812;7.738;2023-12-20T00:21:45;5.20;99.90
3846;DHT22;1938;50.812;7.738;2023-12-20T00:24:11;5.20;99.90
3846;DHT22;1938;50.812;7.738;2023-12-20T00:26:36;5.20;99.90
3846;DHT22;1938;50.812;7.738;2023-12-20T00:29:02;5.20;99.90
3846;DHT22;1938;50.812;7.738;2023-12-20T00:31:28;5.30;99.90
3846;DHT22;1938;50.812;7.738;2023-12-20T00:33:54;5.30;99.90
3846;DHT22;1938;50.812;7.738;2023-12-20T00:36:20;5.30;99.90
3846;DHT22;1938;50.812;7.738;2023-12-20T00:38:47;5.30;99.90
3846;DHT22;1938;50.812;7.738;2023-12-20T00:41:13;5.30;99.90
3846;DHT22;1938;50.812;7.738;2023-12-20T00:43:39;5.30;99.90
3846;DHT22;1938;50.812;7.738;2023-12-20T00:46:05;5.30;99.90
3846;DHT22;1938;50.812;7.738;2023-12-20T00:48:31;5.40;99.90
3846;DHT22;1938;50.812;7.738;2023-12-20T00:50:57;5.40;99.90
3846;DHT22;1938;50.812;7.738;2023-12-20T00:53:23;5.40;99.90
3846;DHT22;1938;50.812;7.738;2023-12-20T00:55:48;5.40;99.90
3846;DHT22;1938;50.812;7.738;2023-12-20T00:58:15;5.40;99.90
3846;DHT22;1938;50.812;7.738;2023-12-20T01:00:41;5.50;99.90
3846;DHT22;1938;50.812;7.738;2023-12-20T01:03:08;5.50;99.90
3846;DHT22;1938;50.812;7.738;2023-12-20T01:05:33;5.40;99.90
3846;DHT22;1938;50.812;7.738;2023-12-20T01:07:59;5.40;99.90
3846;DHT22;1938;50.812;7.738;2023-12-20T01:10:25;5.50;99.90
3846;DHT22;1938;50.812;7.738;2023-12-20T01:12:53;5.50;99.90
3846;DHT22;1938;50.812;7.738;2023-12-20T01:15:19;5.50;99.90
3846;DHT22;1938;50.812;7.738;2023-12-20T01:17:44;5.50;99.90
3846;DHT22;1938;50.812;7.738;2023-12-20T01:20:10;5.50;99.90
3846;DHT22;1938;50.812;7.738;2023-12-20T01:22:36;5.60;99.90
3846;DHT22;1938;50.812;7.738;2023-12-20T01:25:01;5.60;99.90
3846;DHT22;1938;50.812;7.738;2023-12-20T01:27:29;5.60;99.90
3846;DHT22;1938;50.812;7.738;2023-12-20T01:29:55;5.60;99.90
3846;DHT22;1938;50.812;7.738;2023-12-20T01:32:20;5.60;99.90
3846;DHT22;1938;50.812;7.738;2023-12-20T01:34:46;5.60;99.90
3846;DHT22;1938;50.812;7.738;2023-12-20T01:37:11;5.60;99.90
3846;DHT22;1938;50.812;7.738;2023-12-20T01:39:37;5.70;99.90
3846;DHT22;1938;50.812;7.738;2023-12-20T01:42:02;5.70;99.90
3846;DHT22;1938;50.812;7.738;2023-12-20T01:44:29;5.70;99.90
3846;DHT22;1938;50.812;7.738;2023-12-20T01:46:54;5.70;99.90
3846;DHT22;1938;50.812;7.738;2023-12-20T01:49:21;5.60;99.90
3846;DHT22;1938;50.812;7.738;2023-12-20T01:51:47;5.50;99.90
3846;DHT22;1938;50.812;7.738;2023-12-20T01:54:13;5.30;99.90
3846;DHT22;1938;50.812;7.738;2023-12-20T01:56:39;5.30;99.90
3846;DHT22;1938;50.812;7.738;2023-12-20T01:59:06;5.20;99.90
3846;DHT22;1938;50.812;7.738;2023-12-20T02:01:33;5.10;99.90
3846;DHT22;1938;50.812;7.738;2023-12-20T02:03:59;5.10;99.90
3846;DHT22;1938;50.812;7.738;2023-12-20T02:06:29;5.10;99.90
3846;DHT22;1938;50.812;7.738;2023-12-20T02:08:55;5.00;99.90
3846;DHT22;1938;50.812;7.738;2023-12-20T02:11:21;5.00;99.90
3846;DHT22;1938;50.812;7.738;2023-12-20T02:13:46;5.00;99.90
3846;DHT22;1938;50.812;7.738;2023-12-20T02:16:12;5.00;99.90
3846;DHT22;1938;50.812;7.738;2023-12-20T02:18:38;4.90;99.90
3846;DHT22;1938;50.812;7.738;2023-12-20T02:21:05;4.80;99.90
3846;DHT22;1938;50.812;7.738;2023-12-20T02:23:31;4.80;99.90
3846;DHT22;1938;50.812;7.738;2023-12-20T02:25:56;4.80;99.90
3846;DHT22;1938;50.812;7.738;2023-12-20T02:28:22;4.80;99.90
3846;DHT22;1938;50.812;7.738;2023-12-20T02:30:49;4.90;99.90
3846;DHT22;1938;50.812;7.738;2023-12-20T02:33:15;4.90;99.90
3846;DHT22;1938;50.812;7.738;2023-12-20T02:35:41;4.80;99.90
3846;DHT22;1938;50.812;7.738;2023-12-20T02:38:06;4.80;99.90
3846;DHT22;1938;50.812;7.738;2023-12-20T02:40:32;4.90;99.90
3846;DHT22;1938;50.812;7.738;2023-12-20T02:42:58;5.00;99.90
3846;DHT22;1938;50.812;7.738;2023-12-20T02:45:23;5.00;99.90
3846;DHT22;1938;50.812;7.738;2023-12-20T02:47:49;5.00;99.90
3846;DHT22;1938;50.812;7.738;2023-12-20T02:50:15;5.00;99.90
3846;DHT22;1938;50.812;7.738;2023-12-20T02:52:44;5.00;99.90
3846;DHT22;1938;50.812;7.738;2023-12-20T02:55:10;4.90;99.90
3846;DHT22;1938;50.812;7.738;2023-12-20T02:57:36;4.90;99.90
3846;DHT22;1938;50.812;7.738;2023-12-20T03:00:10;4.90;99.90
3846;DHT22;1938;50.812;7.738;2023-12-20T03:02:36;4.90;99.90
3846;DHT22;1938;50.812;7.738;2023-12-20T03:05:02;4.90;99.90
3846;DHT22;1938;50.812;7.738;2023-12-20T03:07:27;4.90;99.90
3846;DHT22;1938;50.812;7.738;2023-12-20T03:09:53;4.90;99.90
3846;DHT22;1938;50.812;7.738;2023-12-20T03:12:19;4.90;99.90
3846;DHT22;1938;50.812;7.738;2023-12-20T03:14:44;4.90;99.90
3846;DHT22;1938;50.812;7.738;2023-12-20T03:17:10;4.90;99.90
3846;DHT22;1938;50.812;7.738;2023-12-20T03:19:36;4.90;99.90
3846;DHT22;1938;50.812;7.738;2023-12-20T03:22:02;4.80;99.90
3846;DHT22;1938;50.812;7.738;2023-12-20T03:24:28;4.70;99.90
3846;DHT22;1938;50.812;7.738;2023-12-20T03:26:53;4.70;99.90
3846;DHT22;1938;50.812;7.738;2023-12-20T03:29:19;4.70;99.90
3846;DHT22;1938;50.812;7.738;2023-12-20T03:31:44;4.60;99.90
3846;DHT22;1938;50.812;7.738;2023-12-20T03:34:11;4.50;99.90
3846;DHT22;1938;50.812;7.738;2023-12-20T03:36:36;4.50;99.90
3846;DHT22;1938;50.812;7.738;2023-12-20T03:39:02;4.40;99.90
3846;DHT22;1938;50.812;7.738;2023-12-20T03:41:28;4.30;99.90
3846;DHT22;1938;50.812;7.738;2023-12-20T03:43:53;4.20;99.90
3846;DHT22;1938;50.812;7.738;2023-12-20T03:46:20;4.10;99.90
3846;DHT22;1938;50.812;7.738;2023-12-20T03:48:45;4.00;99.90
3846;DHT22;1938;50.812;7.738;2023-12-20T03:51:11;4.00;99.90
3846;DHT22;1938;50.812;7.738;2023-12-20T03:53:37;4.10;99.90
3846;DHT22;1938;50.812;7.738;2023-12-20T03:56:05;4.10;99.90
3846;DHT22;1938;50.812;7.738;2023-12-20T03:58:30;4.10;99.90
3846;DHT22;1938;50.812;7.738;2023-12-20T04:00:56;4.10;99.90
3846;DHT22;1938;50.812;7.738;2023-12-20T04:03:21;4.10;99.90
3846;DHT22;1938;50.812;7.738;2023-12-20T04:05:47;4.20;99.90
3846;DHT22;1938;50.812;7.738;2023-12-20T04:08:12;4.20;99.90
3846;DHT22;1938;50.812;7.738;2023-12-20T04:10:39;4.20;99.90
3846;DHT22;1938;50.812;7.738;2023-12-20T04:13:04;4.20;99.90
3846;DHT22;1938;50.812;7.738;2023-12-20T04:15:30;4.20;99.90
3846;DHT22;1938;50.812;7.738;2023-12-20T04:17:55;4.20;99.90
3846;DHT22;1938;50.812;7.738;2023-12-20T04:20:21;4.20;99.90
3846;DHT22;1938;50.812;7.738;2023-12-20T04:22:46;4.30;99.90
3846;DHT22;1938;50.812;7.738;2023-12-20T04:25:13;4.30;99.90
3846;DHT22;1938;50.812;7.738;2023-12-20T04:27:38;4.30;99.90
3846;DHT22;1938;50.812;7.738;2023-12-20T04:30:04;4.30;99.90
3846;DHT22;1938;50.812;7.738;2023-12-20T04:32:30;4.30;99.90
3846;DHT22;1938;50.812;7.738;2023-12-20T04:34:56;4.30;99.90
3846;DHT22;1938;50.812;7.738;2023-12-20T04:37:22;4.30;99.90
3846;DHT22;1938;50.812;7.738;2023-12-20T04:39:48;4.30;99.90
3846;DHT22;1938;50.812;7.738;2023-12-20T04:42:14;4.30;99.90
3846;DHT22;1938;50.812;7.738;2023-12-20T04:44:40;4.30;99.90
3846;DHT22;1938;50.812;7.738;2023-12-20T04:47:05;4.30;99.90
3846;DHT22;1938;50.812;7.738;2023-12-20T04:49:31;4.30;99.90
3846;DHT22;1938;50.812;7.738;2023-12-20T04:51:56;4.30;99.90
3846;DHT22;1938;50.812;7.738;2023-12-20T04:54:22;4.30;99.90
3846;DHT22;1938;50.812;7.738;2023-12-20T04:56:47;4.40;99.90
3846;DHT22;1938;50.812;7.738;2023-12-20T04:59:13;4.60;99.90
3846;DHT22;1938;50.812;7.738;2023-12-20T05:01:39;4.50;99.90
3846;DHT22;1938;50.812;7.738;2023-12-20T05:04:04;4.50;99.90
3846;DHT22;1938;50.812;7.738;2023-12-20T05:06:30;4.50;99.90
3846;DHT22;1938;50.812;7.738;2023-12-20T05:08:55;4.40;99.90
3846;DHT22;1938;50.812;7.738;2023-12-20T05:11:21;4.50;99.90
3846;DHT22;1938;50.812;7.738;2023-12-20T05:13:46;4.60;99.90
3846;DHT22;1938;50.812;7.738;2023-12-20T05:16:12;4.60;99.90
3846;DHT22;1938;50.812;7.738;2023-12-20T05:18:39;4.60;99.90
3846;DHT22;1938;50.812;7.738;2023-12-20T05:21:04;4.50;99.90
3846;DHT22;1938;50.812;7.738;2023-12-20T05:23:30;4.50;99.90
3846;DHT22;1938;50.812;7.738;2023-12-20T05:25:56;4.50;99.90
3846;DHT22;1938;50.812;7.738;2023-12-20T05:28:21;4.60;99.90
3846;DHT22;1938;50.812;7.738;2023-12-20T05:30:47;4.50;99.90
3846;DHT22;1938;50.812;7.738;2023-12-20T05:33:12;4.50;99.90
3846;DHT22;1938;50.812;7.738;2023-12-20T05:35:38;4.60;99.90
3846;DHT22;1938;50.812;7.738;2023-12-20T05:38:03;4.60;99.90
3846;DHT22;1938;50.812;7.738;2023-12-20T05:40:29;4.60;99.90
3846;DHT22;1938;50.812;7.738;2023-12-20T05:42:54;4.60;99.90
3846;DHT22;1938;50.812;7.738;2023-12-20T05:45:20;4.50;99.90
3846;DHT22;1938;50.812;7.738;2023-12-20T05:47:46;4.70;99.90
3846;DHT22;1938;50.812;7.738;2023-12-20T05:50:11;4.70;99.90
3846;DHT22;1938;50.812;7.738;2023-12-20T05:52:38;5.10;99.90
3846;DHT22;1938;50.812;7.738;2023-12-20T05:55:03;5.60;99.90
3846;DHT22;1938;50.812;7.738;2023-12-20T05:57:29;5.50;99.90
3846;DHT22;1938;50.812;7.738;2023-12-20T05:59:55;5.40;99.90
3846;DHT22;1938;50.812;7.738;2023-12-20T06:02:20;5.60;99.90
3846;DHT22;1938;50.812;7.738;2023-12-20T06:04:46;5.90;99.90
3846;DHT22;1938;50.812;7.738;2023-12-20T06:07:12;6.00;99.90
3846;DHT22;1938;50.812;7.738;2023-12-20T06:09:38;5.90;99.90
3846;DHT22;1938;50.812;7.738;2023-12-20T06:12:04;5.60;99.90
3846;DHT22;1938;50.812;7.738;2023-12-20T06:14:29;5.70;99.90
3846;DHT22;1938;50.812;7.738;2023-12-20T06:16:56;5.50;99.90
3846;DHT22;1938;50.812;7.738;2023-12-20T06:19:22;5.10;99.90
3846;DHT22;1938;50.812;7.738;2023-12-20T06:21:47;4.90;99.90
3846;DHT22;1938;50.812;7.738;2023-12-20T06:24:13;4.70;99.90
3846;DHT22;1938;50.812;7.738;2023-12-20T06:26:39;4.60;99.90
3846;DHT22;1938;50.812;7.738;2023-12-20T06:29:04;4.50;99.90
3846;DHT22;1938;50.812;7.738;2023-12-20T06:31:30;4.50;99.90
3846;DHT22;1938;50.812;7.738;2023-12-20T06:33:55;4.50;99.90
3846;DHT22;1938;50.812;7.738;2023-12-20T06:36:31;4.40;99.90
3846;DHT22;1938;50.812;7.738;2023-12-20T06:38:57;4.40;99.90
3846;DHT22;1938;50.812;7.738;2023-12-20T06:41:23;4.40;99.90
3846;DHT22;1938;50.812;7.738;2023-12-20T06:43:50;4.30;99.90
3846;DHT22;1938;50.812;7.738;2023-12-20T06:46:15;4.40;99.90
3846;DHT22;1938;50.812;7.738;2023-12-20T06:48:42;4.40;99.90
3846;DHT22;1938;50.812;7.738;2023-12-20T06:51:14;4.40;99.90
3846;DHT22;1938;50.812;7.738;2023-12-20T06:53:40;4.50;99.90
3846;DHT22;1938;50.812;7.738;2023-12-20T06:56:05;4.60;99.90
3846;DHT22;1938;50.812;7.738;2023-12-20T06:58:32;4.70;99.90
3846;DHT22;1938;50.812;7.738;2023-12-20T07:00:58;4.80;99.90
3846;DHT22;1938;50.812;7.738;2023-12-20T07:03:23;4.90;99.90
3846;DHT22;1938;50.812;7.738;2023-12-20T07:05:49;5.00;99.90
3846;DHT22;1938;50.812;7.738;2023-12-20T07:08:14;5.00;99.90
3846;DHT22;1938;50.812;7.738;2023-12-20T07:10:41;5.10;99.90
3846;DHT22;1938;50.812;7.738;2023-12-20T07:13:06;5.10;99.90
3846;DHT22;1938;50.812;7.738;2023-12-20T07:15:33;5.10;99.90
3846;DHT22;1938;50.812;7.738;2023-12-20T07:17:58;5.10;99.90
3846;DHT22;1938;50.812;7.738;2023-12-20T07:20:26;5.10;99.90
3846;DHT22;1938;50.812;7.738;2023-12-20T07:22:52;5.10;99.90
3846;DHT22;1938;50.812;7.738;2023-12-20T07:25:18;5.10;99.90
3846;DHT22;1938;50.812;7.738;2023-12-20T07:27:43;5.10;99.90
3846;DHT22;1938;50.812;7.738;2023-12-20T07:30:09;5.10;99.90
3846;DHT22;1938;50.812;7.738;2023-12-20T07:32:35;5.10;99.90
3846;DHT22;1938;50.812;7.738;2023-12-20T07:35:00;5.10;99.90
3846;DHT22;1938;50.812;7.738;2023-12-20T07:37:26;5.10;99.90
3846;DHT22;1938;50.812;7.738;2023-12-20T07:39:51;5.20;99.90
3846;DHT22;1938;50.812;7.738;2023-12-20T07:42:17;5.20;99.90
3846;DHT22;1938;50.812;7.738;2023-12-20T07:44:42;5.20;99.90
3846;DHT22;1938;50.812;7.738;2023-12-20T07:47:08;5.20;99.90
3846;DHT22;1938;50.812;7.738;2023-12-20T07:49:34;5.20;99.90
3846;DHT22;1938;50.812;7.738;2023-12-20T07:51:59;5.20;99.90
3846;DHT22;1938;50.812;7.738;2023-12-20T07:54:25;5.20;99.90
3846;DHT22;1938;50.812;7.738;2023-12-20T07:56:50;5.20;99.90
3846;DHT22;1938;50.812;7.738;2023-12-20T07:59:16;5.20;99.90
3846;DHT22;1938;50.812;7.738;2023-12-20T08:01:41;5.20;99.90
3846;DHT22;1938;50.812;7.738;2023-12-20T08:04:08;5.10;99.90
3846;DHT22;1938;50.812;7.738;2023-12-20T08:06:33;5.20;99.90
3846;DHT22;1938;50.812;7.738;2023-12-20T08:08:59;5.00;99.90
3846;DHT22;1938;50.812;7.738;2023-12-20T08:11:24;4.70;99.90
3846;DHT22;1938;50.812;7.738;2023-12-20T08:13:50;4.50;99.90
3846;DHT22;1938;50.812;7.738;2023-12-20T08:16:16;4.40;99.90
3846;DHT22;1938;50.812;7.738;2023-12-20T08:18:43;4.40;99.90
3846;DHT22;1938;50.812;7.738;2023-12-20T08:21:08;4.40;99.90
3846;DHT22;1938;50.812;7.738;2023-12-20T08:23:35;4.40;99.90
3846;DHT22;1938;50.812;7.738;2023-12-20T08:26:09;4.30;99.90
3846;DHT22;1938;50.812;7.738;2023-12-20T08:28:36;4.30;99.90
3846;DHT22;1938;50.812;7.738;2023-12-20T08:31:02;4.30;99.90
3846;DHT22;1938;50.812;7.738;2023-12-20T08:33:28;4.30;99.90
3846;DHT22;1938;50.812;7.738;2023-12-20T08:35:53;4.30;99.90
3846;DHT22;1938;50.812;7.738;2023-12-20T08:38:19;4.30;99.90
3846;DHT22;1938;50.812;7.738;2023-12-20T08:40:45;4.30;99.90
3846;DHT22;1938;50.812;7.738;2023-12-20T08:43:11;4.30;99.90
3846;DHT22;1938;50.812;7.738;2023-12-20T08:45:37;4.30;99.90
3846;DHT22;1938;50.812;7.738;2023-12-20T08:48:04;4.50;99.90
3846;DHT22;1938;50.812;7.738;2023-12-20T08:50:30;4.30;99.90
3846;DHT22;1938;50.812;7.738;2023-12-20T08:52:55;4.30;99.90
3846;DHT22;1938;50.812;7.738;2023-12-20T08:55:21;4.30;99.90
3846;DHT22;1938;50.812;7.738;2023-12-20T08:57:47;4.30;99.90
3846;DHT22;1938;50.812;7.738;2023-12-20T09:00:13;4.30;99.90
3846;DHT22;1938;50.812;7.738;2023-12-20T09:02:39;4.30;99.90
3846;DHT22;1938;50.812;7.738;2023-12-20T09:05:05;4.30;99.90
3846;DHT22;1938;50.812;7.738;2023-12-20T09:07:31;4.30;99.90
3846;DHT22;1938;50.812;7.738;2023-12-20T09:09:57;4.30;99.90
3846;DHT22;1938;50.812;7.738;2023-12-20T09:12:23;4.20;99.90
3846;DHT22;1938;50.812;7.738;2023-12-20T09:14:49;4.30;99.90
3846;DHT22;1938;50.812;7.738;2023-12-20T09:17:16;4.30;99.90
3846;DHT22;1938;50.812;7.738;2023-12-20T09:19:42;4.30;99.90
3846;DHT22;1938;50.812;7.738;2023-12-20T09:22:09;4.30;99.90
3846;DHT22;1938;50.812;7.738;2023-12-20T09:24:35;4.30;99.90
3846;DHT22;1938;50.812;7.738;2023-12-20T09:27:00;4.30;99.90
3846;DHT22;1938;50.812;7.738;2023-12-20T09:29:26;4.40;99.90
3846;DHT22;1938;50.812;7.738;2023-12-20T09:31:51;4.40;99.90
3846;DHT22;1938;50.812;7.738;2023-12-20T09:34:17;4.30;99.90
3846;DHT22;1938;50.812;7.738;2023-12-20T09:36:42;4.40;99.90
3846;DHT22;1938;50.812;7.738;2023-12-20T09:39:13;4.40;99.90
3846;DHT22;1938;50.812;7.738;2023-12-20T09:41:43;4.40;99.90
3846;DHT22;1938;50.812;7.738;2023-12-20T09:44:14;4.40;99.90
3846;DHT22;1938;50.812;7.738;2023-12-20T09:46:43;4.40;99.90
3846;DHT22;1938;50.812;7.738;2023-12-20T09:49:10;4.40;99.90
3846;DHT22;1938;50.812;7.738;2023-12-20T09:51:36;4.40;99.90
3846;DHT22;1938;50.812;7.738;2023-12-20T09:54:05;4.40;99.90
3846;DHT22;1938;50.812;7.738;2023-12-20T09:56:30;4.40;99.90
3846;DHT22;1938;50.812;7.738;2023-12-20T09:58:56;4.50;99.90
3846;DHT22;1938;50.812;7.738;2023-12-20T10:01:23;4.60;99.90
3846;DHT22;1938;50.812;7.738;2023-12-20T10:03:51;4.60;99.90
3846;DHT22;1938;50.812;7.738;2023-12-20T10:06:17;4.50;99.90
3846;DHT22;1938;50.812;7.738;2023-12-20T10:08:43;4.60;99.90
3846;DHT22;1938;50.812;7.738;2023-12-20T10:11:09;4.50;99.90
3846;DHT22;1938;50.812;7.738;2023-12-20T10:13:42;4.50;99.90
3846;DHT22;1938;50.812;7.738;2023-12-20T10:16:09;4.50;99.90
3846;DHT22;1938;50.812;7.738;2023-12-20T10:18:34;4.50;99.90
3846;DHT22;1938;50.812;7.738;2023-12-20T10:21:03;4.50;99.90
3846;DHT22;1938;50.812;7.738;2023-12-20T10:23:30;4.60;99.90
3846;DHT22;1938;50.812;7.738;2023-12-20T10:25:59;4.70;99.90
3846;DHT22;1938;50.812;7.738;2023-12-20T10:28:25;4.80;99.90
3846;DHT22;1938;50.812;7.738;2023-12-20T10:30:54;4.90;99.90
3846;DHT22;1938;50.812;7.738;2023-12-20T10:33:26;5.00;99.90
3846;DHT22;1938;50.812;7.738;2023-12-20T10:35:52;5.00;99.90
3846;DHT22;1938;50.812;7.738;2023-12-20T10:38:18;5.10;99.90
3846;DHT22;1938;50.812;7.738;2023-12-20T10:40:45;5.10;99.90
3846;DHT22;1938;50.812;7.738;2023-12-20T10:43:11;5.20;99.90
3846;DHT22;1938;50.812;7.738;2023-12-20T10:45:37;5.30;99.90
3846;DHT22;1938;50.812;7.738;2023-12-20T10:48:04;5.30;99.90
3846;DHT22;1938;50.812;7.738;2023-12-20T10:50:30;5.40;99.90
3846;DHT22;1938;50.812;7.738;2023-12-20T10:52:56;5.30;99.90
3846;DHT22;1938;50.812;7.738;2023-12-20T10:55:26;5.30;99.90
3846;DHT22;1938;50.812;7.738;2023-12-20T10:57:52;5.40;99.90
3846;DHT22;1938;50.812;7.738;2023-12-20T11:00:19;5.40;99.90
3846;DHT22;1938;50.812;7.738;2023-12-20T11:02:49;5.50;99.90
3846;DHT22;1938;50.812;7.738;2023-12-20T11:08:09;5.50;99.90
3846;DHT22;1938;50.812;7.738;2023-12-20T11:10:39;5.40;99.90
3846;DHT22;1938;50.812;7.738;2023-12-20T11:13:20;5.40;99.90
3846;DHT22;1938;50.812;7.738;2023-12-20T11:15:47;5.50;99.90
3846;DHT22;1938;50.812;7.738;2023-12-20T11:18:12;5.40;99.90
3846;DHT22;1938;50.812;7.738;2023-12-20T11:20:39;5.40;99.90
3846;DHT22;1938;50.812;7.738;2023-12-20T11:23:06;5.50;99.90
3846;DHT22;1938;50.812;7.738;2023-12-20T11:25:51;5.50;99.90
3846;DHT22;1938;50.812;7.738;2023-12-20T11:28:21;5.50;99.90
3846;DHT22;1938;50.812;7.738;2023-12-20T11:30:50;5.50;99.90
3846;DHT22;1938;50.812;7.738;2023-12-20T11:33:16;5.60;99.90
3846;DHT22;1938;50.812;7.738;2023-12-20T11:35:45;5.60;99.90
3846;DHT22;1938;50.812;7.738;2023-12-20T11:38:11;5.50;99.90
3846;DHT22;1938;50.812;7.738;2023-12-20T11:40:38;5.30;99.90
3846;DHT22;1938;50.812;7.738;2023-12-20T11:43:04;5.00;99.90
3846;DHT22;1938;50.812;7.738;2023-12-20T11:45:33;4.90;99.90
3846;DHT22;1938;50.812;7.738;2023-12-20T11:48:00;4.80;99.90
3846;DHT22;1938;50.812;7.738;2023-12-20T11:50:27;4.80;99.90
3846;DHT22;1938;50.812;7.738;2023-12-20T11:52:53;4.70;99.90
3846;DHT22;1938;50.812;7.738;2023-12-20T11:55:21;4.70;99.90
3846;DHT22;1938;50.812;7.738;2023-12-20T11:57:46;4.70;99.90
3846;DHT22;1938;50.812;7.738;2023-12-20T12:00:13;4.70;99.90
3846;DHT22;1938;50.812;7.738;2023-12-20T12:02:39;4.50;99.90
3846;DHT22;1938;50.812;7.738;2023-12-20T12:05:05;4.50;99.90
3846;DHT22;1938;50.812;7.738;2023-12-20T12:07:31;4.60;99.90
3846;DHT22;1938;50.812;7.738;2023-12-20T12:09:57;4.60;99.90
3846;DHT22;1938;50.812;7.738;2023-12-20T12:12:23;4.60;99.90
3846;DHT22;1938;50.812;7.738;2023-12-20T12:14:50;4.60;99.90
3846;DHT22;1938;50.812;7.738;2023-12-20T12:17:16;4.50;99.90
3846;DHT22;1938;50.812;7.738;2023-12-20T12:19:42;4.60;99.90
3846;DHT22;1938;50.812;7.738;2023-12-20T12:22:14;4.60;99.90
3846;DHT22;1938;50.812;7.738;2023-12-20T12:24:43;4.60;99.90
3846;DHT22;1938;50.812;7.738;2023-12-20T12:27:09;4.60;99.90
3846;DHT22;1938;50.812;7.738;2023-12-20T12:29:35;4.60;99.90
3846;DHT22;1938;50.812;7.738;2023-12-20T12:32:05;4.70;99.90
3846;DHT22;1938;50.812;7.738;2023-12-20T12:34:31;4.70;99.90
3846;DHT22;1938;50.812;7.738;2023-12-20T12:36:57;4.70;99.90
3846;DHT22;1938;50.812;7.738;2023-12-20T12:39:24;4.70;99.90
3846;DHT22;1938;50.812;7.738;2023-12-20T12:41:53;4.70;99.90
3846;DHT22;1938;50.812;7.738;2023-12-20T12:44:19;4.70;99.90
3846;DHT22;1938;50.812;7.738;2023-12-20T12:46:48;4.80;99.90
3846;DHT22;1938;50.812;7.738;2023-12-20T12:49:16;4.80;99.90
3846;DHT22;1938;50.812;7.738;2023-12-20T12:51:43;4.80;99.90
3846;DHT22;1938;50.812;7.738;2023-12-20T12:54:09;4.80;99.90
3846;DHT22;1938;50.812;7.738;2023-12-20T12:56:36;4.70;99.90
3846;DHT22;1938;50.812;7.738;2023-12-20T12:59:02;4.70;99.90
3846;DHT22;1938;50.812;7.738;2023-12-20T13:01:28;4.70;99.90
3846;DHT22;1938;50.812;7.738;2023-12-20T13:03:53;4.70;99.90
3846;DHT22;1938;50.812;7.738;2023-12-20T13:06:19;4.70;99.90
3846;DHT22;1938;50.812;7.738;2023-12-20T13:08:45;4.70;99.90
3846;DHT22;1938;50.812;7.738;2023-12-20T13:11:10;4.70;99.90
3846;DHT22;1938;50.812;7.738;2023-12-20T13:13:36;4.70;99.90
3846;DHT22;1938;50.812;7.738;2023-12-20T13:16:02;4.60;99.90
3846;DHT22;1938;50.812;7.738;2023-12-20T13:18:27;4.70;99.90
3846;DHT22;1938;50.812;7.738;2023-12-20T13:20:53;4.60;99.90
3846;DHT22;1938;50.812;7.738;2023-12-20T13:23:19;4.60;99.90
3846;DHT22;1938;50.812;7.738;2023-12-20T13:25:44;4.60;99.90
3846;DHT22;1938;50.812;7.738;2023-12-20T13:28:13;4.50;99.90
3846;DHT22;1938;50.812;7.738;2023-12-20T13:30:39;4.60;99.90
3846;DHT22;1938;50.812;7.738;2023-12-20T13:33:05;4.50;99.90
3846;DHT22;1938;50.812;7.738;2023-12-20T13:35:31;4.50;99.90
3846;DHT22;1938;50.812;7.738;2023-12-20T13:37:57;4.40;99.90
3846;DHT22;1938;50.812;7.738;2023-12-20T13:40:23;4.50;99.90
3846;DHT22;1938;50.812;7.738;2023-12-20T13:42:50;4.50;99.90
3846;DHT22;1938;50.812;7.738;2023-12-20T13:45:16;4.50;99.90
3846;DHT22;1938;50.812;7.738;2023-12-20T13:47:41;4.40;99.90
3846;DHT22;1938;50.812;7.738;2023-12-20T13:50:07;4.40;99.90
3846;DHT22;1938;50.812;7.738;2023-12-20T13:52:33;4.50;99.90
3846;DHT22;1938;50.812;7.738;2023-12-20T13:54:58;4.50;99.90
3846;DHT22;1938;50.812;7.738;2023-12-20T13:57:24;4.40;99.90
3846;DHT22;1938;50.812;7.738;2023-12-20T13:59:49;4.50;99.90
3846;DHT22;1938;50.812;7.738;2023-12-20T14:02:15;4.50;99.90
3846;DHT22;1938;50.812;7.738;2023-12-20T14:04:42;4.50;99.90
3846;DHT22;1938;50.812;7.738;2023-12-20T14:07:10;4.50;99.90
3846;DHT22;1938;50.812;7.738;2023-12-20T14:09:36;4.50;99.90
3846;DHT22;1938;50.812;7.738;2023-12-20T14:12:02;4.50;99.90
3846;DHT22;1938;50.812;7.738;2023-12-20T14:14:27;4.50;99.90
3846;DHT22;1938;50.812;7.738;2023-12-20T14:16:53;4.50;99.90
3846;DHT22;1938;50.812;7.738;2023-12-20T14:19:19;4.50;99.90
3846;DHT22;1938;50.812;7.738;2023-12-20T14:21:44;4.50;99.90
3846;DHT22;1938;50.812;7.738;2023-12-20T14:24:15;4.60;99.90
3846;DHT22;1938;50.812;7.738;2023-12-20T14:26:41;4.60;99.90
3846;DHT22;1938;50.812;7.738;2023-12-20T14:29:07;4.60;99.90
3846;DHT22;1938;50.812;7.738;2023-12-20T14:31:33;4.60;99.90
3846;DHT22;1938;50.812;7.738;2023-12-20T14:33:58;4.60;99.90
3846;DHT22;1938;50.812;7.738;2023-12-20T14:36:25;4.60;99.90
3846;DHT22;1938;50.812;7.738;2023-12-20T14:38:50;4.60;99.90
3846;DHT22;1938;50.812;7.738;2023-12-20T14:41:16;4.60;99.90
3846;DHT22;1938;50.812;7.738;2023-12-20T14:43:44;4.60;99.90
3846;DHT22;1938;50.812;7.738;2023-12-20T14:46:10;4.60;99.90
3846;DHT22;1938;50.812;7.738;2023-12-20T14:48:35;4.60;99.90
3846;DHT22;1938;50.812;7.738;2023-12-20T14:51:01;4.60;99.90
3846;DHT22;1938;50.812;7.738;2023-12-20T14:53:27;4.60;99.90
3846;DHT22;1938;50.812;7.738;2023-12-20T14:55:53;4.60;99.90
3846;DHT22;1938;50.812;7.738;2023-12-20T14:58:18;4.60;99.90
3846;DHT22;1938;50.812;7.738;2023-12-20T15:00:44;4.60;99.90
3846;DHT22;1938;50.812;7.738;2023-12-20T15:03:10;4.60;99.90
3846;DHT22;1938;50.812;7.738;2023-12-20T15:05:36;4.60;99.90
3846;DHT22;1938;50.812;7.738;2023-12-20T15:08:02;4.60;99.90
3846;DHT22;1938;50.812;7.738;2023-12-20T15:10:27;4.60;99.90
3846;DHT22;1938;50.812;7.738;2023-12-20T15:12:53;4.60;99.90
3846;DHT22;1938;50.812;7.738;2023-12-20T15:15:20;4.60;99.90
3846;DHT22;1938;50.812;7.738;2023-12-20T15:17:46;4.60;99.90
3846;DHT22;1938;50.812;7.738;2023-12-20T15:20:12;4.60;99.90
3846;DHT22;1938;50.812;7.738;2023-12-20T15:22:37;4.70;99.90
3846;DHT22;1938;50.812;7.738;2023-12-20T15:25:05;4.70;99.90
3846;DHT22;1938;50.812;7.738;2023-12-20T15:27:33;4.60;99.90
3846;DHT22;1938;50.812;7.738;2023-12-20T15:30:01;4.60;99.90
3846;DHT22;1938;50.812;7.738;2023-12-20T15:32:26;4.60;99.90
3846;DHT22;1938;50.812;7.738;2023-12-20T15:34:52;4.60;99.90
3846;DHT22;1938;50.812;7.738;2023-12-20T15:37:19;4.60;99.90
3846;DHT22;1938;50.812;7.738;2023-12-20T15:39:45;4.70;99.90
3846;DHT22;1938;50.812;7.738;2023-12-20T15:42:10;4.60;99.90
3846;DHT22;1938;50.812;7.738;2023-12-20T15:44:36;4.70;99.90
3846;DHT22;1938;50.812;7.738;2023-12-20T15:47:02;4.70;99.90
3846;DHT22;1938;50.812;7.738;2023-12-20T15:49:27;4.70;99.90
3846;DHT22;1938;50.812;7.738;2023-12-20T15:51:53;4.70;99.90
3846;DHT22;1938;50.812;7.738;2023-12-20T15:54:18;4.70;99.90
3846;DHT22;1938;50.812;7.738;2023-12-20T15:56:44;4.70;99.90
3846;DHT22;1938;50.812;7.738;2023-12-20T15:59:11;4.70;99.90
3846;DHT22;1938;50.812;7.738;2023-12-20T16:01:37;4.70;99.90
3846;DHT22;1938;50.812;7.738;2023-12-20T16:04:03;4.80;99.90
3846;DHT22;1938;50.812;7.738;2023-12-20T16:06:28;4.80;99.90
3846;DHT22;1938;50.812;7.738;2023-12-20T16:08:54;4.80;99.90
3846;DHT22;1938;50.812;7.738;2023-12-20T16:11:19;4.80;99.90
3846;DHT22;1938;50.812;7.738;2023-12-20T16:13:45;4.80;99.90